sensor_id;sensor_type;location;lat;lon;timestamp;pressure;altitude;pressure_sealevel;temperature;humidity
13068;BME280;6600;51.362;6.686;2023-11-21T00:01:57;100646.81;;;8.41;100.00
13068;BME280;6600;51.362;6.686;2023-11-21T00:04:23;100644.38;;;8.46;100.00
13068;BME280;6600;51.362;6.686;2023-11-21T00:06:48;100643.56;;;8.52;100.00
13068;BME280;6600;51.362;6.686;2023-11-21T00:09:14;100649.72;;;8.59;100.00
13068;BME280;6600;51.362;6.686;2023-11-21T00:11:43;100649.13;;;8.64;100.00
13068;BME280;6600;51.362;6.686;2023-11-21T00:14:10;100648.91;;;8.66;100.00
13068;BME280;6600;51.362;6.686;2023-11-21T00:16:35;100651.81;;;8.71;100.00
13068;BME280;6600;51.362;6.686;2023-11-21T00:19:01;100655.72;;;8.75;100.00
13068;BME280;6600;51.362;6.686;2023-11-21T00:21:26;100664.97;;;8.79;100.00
13068;BME280;6600;51.362;6.686;2023-11-21T00:23:52;100659.22;;;8.82;100.00
13068;BME280;6600;51.362;6.686;2023-11-21T00:26:17;100657.97;;;8.84;100.00
13068;BME280;6600;51.362;6.686;2023-11-21T00:28:43;100657.97;;;8.84;100.00
13068;BME280;6600;51.362;6.686;2023-11-21T00:31:08;100668.25;;;8.87;100.00
13068;BME280;6600;51.362;6.686;2023-11-21T00:33:33;100656.31;;;8.90;100.00
13068;BME280;6600;51.362;6.686;2023-11-21T00:35:59;100668.25;;;8.94;100.00
13068;BME280;6600;51.362;6.686;2023-11-21T00:38:24;100664.56;;;8.95;100.00
13068;BME280;6600;51.362;6.686;2023-11-21T00:40:49;100665.97;;;8.97;100.00
13068;BME280;6600;51.362;6.686;2023-11-21T00:43:14;100666.63;;;8.99;100.00
13068;BME280;6600;51.362;6.686;2023-11-21T00:45:40;100669.06;;;9.01;100.00
13068;BME280;6600;51.362;6.686;2023-11-21T00:48:05;100666.19;;;9.02;100.00
13068;BME280;6600;51.362;6.686;2023-11-21T00:50:31;100666.38;;;9.01;100.00
13068;BME280;6600;51.362;6.686;2023-11-21T00:52:56;100662.06;;;9.00;100.00
13068;BME280;6600;51.362;6.686;2023-11-21T00:55:22;100660.44;;;8.99;100.00
13068;BME280;6600;51.362;6.686;2023-11-21T00:57:47;100663.94;;;8.99;100.00
13068;BME280;6600;51.362;6.686;2023-11-21T01:00:13;100662.91;;;8.94;100.00
13068;BME280;6600;51.362;6.686;2023-11-21T01:02:42;100667.81;;;8.97;100.00
13068;BME280;6600;51.362;6.686;2023-11-21T01:05:09;100661.66;;;8.96;100.00
13068;BME280;6600;51.362;6.686;2023-11-21T01:07:35;100664.56;;;8.95;100.00
13068;BME280;6600;51.362;6.686;2023-11-21T01:10:02;100674.41;;;8.94;100.00
13068;BME280;6600;51.362;6.686;2023-11-21T01:12:28;100680.59;;;8.95;100.00
13068;BME280;6600;51.362;6.686;2023-11-21T01:14:53;100675.25;;;8.95;100.00
13068;BME280;6600;51.362;6.686;2023-11-21T01:17:19;100690.25;;;8.96;100.00
13068;BME280;6600;51.362;6.686;2023-11-21T01:19:44;100678.09;;;8.93;100.00
13068;BME280;6600;51.362;6.686;2023-11-21T01:22:09;100687.59;;;8.96;100.00
13068;BME280;6600;51.362;6.686;2023-11-21T01:24:37;100676.25;;;8.94;100.00
13068;BME280;6600;51.362;6.686;2023-11-21T01:27:02;100684.28;;;8.94;100.00
13068;BME280;6600;51.362;6.686;2023-11-21T01:29:29;100685.94;;;8.95;100.00
13068;BME280;6600;51.362;6.686;2023-11-21T01:31:55;100689.63;;;8.94;100.00
13068;BME280;6600;51.362;6.686;2023-11-21T01:34:22;100697.22;;;8.97;100.00
13068;BME280;6600;51.362;6.686;2023-11-21T01:36:48;100692.94;;;8.96;100.00
13068;BME280;6600;51.362;6.686;2023-11-21T01:39:13;100695.19;;;8.99;100.00
13068;BME280;6600;51.362;6.686;2023-11-21T01:41:41;100697.84;;;8.99;100.00
13068;BME280;6600;51.362;6.686;2023-11-21T01:44:06;100692.50;;;8.99;100.00
13068;BME280;6600;51.362;6.686;2023-11-21T01:46:34;100694.97;;;9.00;100.00
13068;BME280;6600;51.362;6.686;2023-11-21T01:49:00;100697.84;;;8.99;100.00
13068;BME280;6600;51.362;6.686;2023-11-21T01:51:25;100699.47;;;9.00;100.00
13068;BME280;6600;51.362;6.686;2023-11-21T01:53:51;100706.06;;;9.04;100.00
13068;BME280;6600;51.362;6.686;2023-11-21T01:56:18;100707.72;;;9.05;100.00
13068;BME280;6600;51.362;6.686;2023-11-21T01:58:43;100708.53;;;9.05;100.00
13068;BME280;6600;51.362;6.686;2023-11-21T02:01:09;100707.72;;;9.05;100.00
13068;BME280;6600;51.362;6.686;2023-11-21T02:03:35;100705.66;;;9.07;100.00
13068;BME280;6600;51.362;6.686;2023-11-21T02:06:00;100705.03;;;9.05;100.00
13068;BME280;6600;51.362;6.686;2023-11-21T02:08:25;100709.78;;;9.03;100.00
13068;BME280;6600;51.362;6.686;2023-11-21T02:10:52;100705.88;;;8.99;100.00
13068;BME280;6600;51.362;6.686;2023-11-21T02:13:17;100702.38;;;9.05;100.00
13068;BME280;6600;51.362;6.686;2023-11-21T02:15:42;100709.16;;;9.07;100.00
13068;BME280;6600;51.362;6.686;2023-11-21T02:18:08;100723.34;;;9.08;100.00
13068;BME280;6600;51.362;6.686;2023-11-21T02:20:36;100721.69;;;9.07;100.00
13068;BME280;6600;51.362;6.686;2023-11-21T02:23:04;100721.69;;;9.07;100.00
13068;BME280;6600;51.362;6.686;2023-11-21T02:25:32;100722.75;;;9.06;100.00
13068;BME280;6600;51.362;6.686;2023-11-21T02:27:59;100732.00;;;9.10;100.00
13068;BME280;6600;51.362;6.686;2023-11-21T02:30:25;100725.00;;;9.09;100.00
13068;BME280;6600;51.362;6.686;2023-11-21T02:32:51;100726.00;;;9.08;100.00
13068;BME280;6600;51.362;6.686;2023-11-21T02:35:20;100726.66;;;9.10;100.00
13068;BME280;6600;51.362;6.686;2023-11-21T02:37:49;100722.94;;;9.11;100.00
13068;BME280;6600;51.362;6.686;2023-11-21T02:40:15;100732.00;;;9.10;100.00
13068;BME280;6600;51.362;6.686;2023-11-21T02:42:48;100731.56;;;9.13;100.00
13068;BME280;6600;51.362;6.686;2023-11-21T02:45:17;100732.41;;;9.13;100.00
13068;BME280;6600;51.362;6.686;2023-11-21T02:47:43;100736.94;;;9.13;100.00
13068;BME280;6600;51.362;6.686;2023-11-21T02:50:08;100738.56;;;9.14;100.00
13068;BME280;6600;51.362;6.686;2023-11-21T02:52:37;100729.50;;;9.15;100.00
13068;BME280;6600;51.362;6.686;2023-11-21T02:55:03;100730.34;;;9.16;100.00
13068;BME280;6600;51.362;6.686;2023-11-21T02:57:28;100732.00;;;9.17;100.00
13068;BME280;6600;51.362;6.686;2023-11-21T02:59:54;100740.19;;;9.15;100.00
13068;BME280;6600;51.362;6.686;2023-11-21T03:02:20;100736.94;;;9.13;100.00
13068;BME280;6600;51.362;6.686;2023-11-21T03:04:45;100736.94;;;9.13;100.00
13068;BME280;6600;51.362;6.686;2023-11-21T03:07:10;100730.75;;;9.12;100.00
13068;BME280;6600;51.362;6.686;2023-11-21T03:09:35;100736.94;;;9.13;100.00
13068;BME280;6600;51.362;6.686;2023-11-21T03:12:01;100740.63;;;9.12;100.00
13068;BME280;6600;51.362;6.686;2023-11-21T03:14:27;100749.66;;;9.11;100.00
13068;BME280;6600;51.362;6.686;2023-11-21T03:16:52;100755.81;;;9.11;100.00
13068;BME280;6600;51.362;6.686;2023-11-21T03:19:17;100750.69;;;9.10;100.00
13068;BME280;6600;51.362;6.686;2023-11-21T03:21:43;100751.72;;;9.09;100.00
13068;BME280;6600;51.362;6.686;2023-11-21T03:24:08;100751.72;;;9.09;100.00
13068;BME280;6600;51.362;6.686;2023-11-21T03:26:34;100753.75;;;9.07;100.00
13068;BME280;6600;51.362;6.686;2023-11-21T03:28:59;100761.41;;;9.10;100.00
13068;BME280;6600;51.362;6.686;2023-11-21T03:31:24;100760.75;;;9.08;100.00
13068;BME280;6600;51.362;6.686;2023-11-21T03:33:50;100761.59;;;9.08;100.00
13068;BME280;6600;51.362;6.686;2023-11-21T03:36:15;100777.63;;;9.08;100.00
13068;BME280;6600;51.362;6.686;2023-11-21T03:38:41;100771.03;;;9.11;100.00
13068;BME280;6600;51.362;6.686;2023-11-21T03:41:07;100770.22;;;9.10;100.00
13068;BME280;6600;51.362;6.686;2023-11-21T03:43:35;100776.38;;;9.11;100.00
13068;BME280;6600;51.362;6.686;2023-11-21T03:46:01;100776.81;;;9.08;100.00
13068;BME280;6600;51.362;6.686;2023-11-21T03:48:27;100781.13;;;9.09;100.00
13068;BME280;6600;51.362;6.686;2023-11-21T03:50:52;100776.81;;;9.08;100.00
13068;BME280;6600;51.362;6.686;2023-11-21T03:53:18;100790.16;;;9.08;100.00
13068;BME280;6600;51.362;6.686;2023-11-21T03:55:43;100798.19;;;9.08;100.00
13068;BME280;6600;51.362;6.686;2023-11-21T03:58:08;100792.00;;;9.07;100.00
13068;BME280;6600;51.362;6.686;2023-11-21T04:00:34;100790.16;;;9.08;100.00
13068;BME280;6600;51.362;6.686;2023-11-21T04:02:59;100791.59;;;9.10;100.00
13068;BME280;6600;51.362;6.686;2023-11-21T04:05:24;100795.09;;;9.11;100.00
13068;BME280;6600;51.362;6.686;2023-11-21T04:07:50;100797.78;;;9.11;100.00
13068;BME280;6600;51.362;6.686;2023-11-21T04:10:16;100794.50;;;9.09;100.00
13068;BME280;6600;51.362;6.686;2023-11-21T04:12:42;100801.06;;;9.06;100.00
13068;BME280;6600;51.362;6.686;2023-11-21T04:15:08;100798.19;;;9.08;100.00
13068;BME280;6600;51.362;6.686;2023-11-21T04:17:34;100797.56;;;9.06;100.00
13068;BME280;6600;51.362;6.686;2023-11-21T04:19:59;100806.81;;;9.03;100.00
13068;BME280;6600;51.362;6.686;2023-11-21T04:22:25;100796.94;;;9.04;100.00
13068;BME280;6600;51.362;6.686;2023-11-21T04:24:50;100808.69;;;9.03;100.00
13068;BME280;6600;51.362;6.686;2023-11-21T04:27:16;100802.69;;;9.01;100.00
13068;BME280;6600;51.362;6.686;2023-11-21T04:29:43;100808.88;;;9.01;100.00
13068;BME280;6600;51.362;6.686;2023-11-21T04:32:09;100804.13;;;8.97;100.00
13068;BME280;6600;51.362;6.686;2023-11-21T04:34:34;100801.84;;;8.94;100.00
13068;BME280;6600;51.362;6.686;2023-11-21T04:37:00;100802.91;;;8.93;100.00
13068;BME280;6600;51.362;6.686;2023-11-21T04:39:26;100809.66;;;8.89;100.00
13068;BME280;6600;51.362;6.686;2023-11-21T04:41:51;100806.16;;;8.88;100.00
13068;BME280;6600;51.362;6.686;2023-11-21T04:44:16;100815.00;;;8.89;100.00
13068;BME280;6600;51.362;6.686;2023-11-21T04:46:42;100819.31;;;8.90;100.00
13068;BME280;6600;51.362;6.686;2023-11-21T04:49:07;100824.06;;;8.88;100.00
13068;BME280;6600;51.362;6.686;2023-11-21T04:51:33;100821.97;;;8.90;100.00
13068;BME280;6600;51.362;6.686;2023-11-21T04:53:58;100830.63;;;8.92;100.00
13068;BME280;6600;51.362;6.686;2023-11-21T04:56:23;100829.63;;;8.93;100.00
13068;BME280;6600;51.362;6.686;2023-11-21T04:58:49;100824.88;;;8.95;100.00
13068;BME280;6600;51.362;6.686;2023-11-21T05:01:15;100830.22;;;8.95;100.00
13068;BME280;6600;51.362;6.686;2023-11-21T05:03:41;100828.16;;;8.97;100.00
13068;BME280;6600;51.362;6.686;2023-11-21T05:06:06;100844.84;;;8.99;100.00
13068;BME280;6600;51.362;6.686;2023-11-21T05:08:34;100833.94;;;9.00;100.00
13068;BME280;6600;51.362;6.686;2023-11-21T05:10:59;100846.28;;;9.01;100.00
13068;BME280;6600;51.362;6.686;2023-11-21T05:13:25;100840.53;;;9.04;100.00
13068;BME280;6600;51.362;6.686;2023-11-21T05:15:54;100838.88;;;9.03;100.00
13068;BME280;6600;51.362;6.686;2023-11-21T05:18:19;100842.59;;;9.02;100.00
13068;BME280;6600;51.362;6.686;2023-11-21T05:20:45;100837.25;;;9.02;100.00
13068;BME280;6600;51.362;6.686;2023-11-21T05:23:10;100843.78;;;9.00;100.00
13068;BME280;6600;51.362;6.686;2023-11-21T05:25:36;100840.53;;;8.98;100.00
13068;BME280;6600;51.362;6.686;2023-11-21T05:28:01;100849.56;;;8.97;100.00
13068;BME280;6600;51.362;6.686;2023-11-21T05:30:28;100857.16;;;8.93;100.00
13068;BME280;6600;51.362;6.686;2023-11-21T05:32:53;100863.13;;;8.89;100.00
13068;BME280;6600;51.362;6.686;2023-11-21T05:35:19;100870.50;;;8.87;100.00
13068;BME280;6600;51.362;6.686;2023-11-21T05:37:45;100876.06;;;8.85;100.00
13068;BME280;6600;51.362;6.686;2023-11-21T05:40:11;100878.28;;;8.82;100.00
13068;BME280;6600;51.362;6.686;2023-11-21T05:42:39;100883.44;;;8.83;100.00
13068;BME280;6600;51.362;6.686;2023-11-21T05:45:06;100882.38;;;8.78;100.00
13068;BME280;6600;51.362;6.686;2023-11-21T05:50:07;100895.59;;;8.86;100.00
13068;BME280;6600;51.362;6.686;2023-11-21T05:52:36;100893.13;;;8.91;100.00
13068;BME280;6600;51.362;6.686;2023-11-21T05:55:03;100897.44;;;8.92;100.00
13068;BME280;6600;51.362;6.686;2023-11-21T05:57:30;100903.81;;;8.91;100.00
13068;BME280;6600;51.362;6.686;2023-11-21T05:59:55;100904.66;;;8.98;100.00
13068;BME280;6600;51.362;6.686;2023-11-21T06:02:20;100910.00;;;8.98;100.00
13068;BME280;6600;51.362;6.686;2023-11-21T06:04:46;100905.91;;;9.02;100.00
13068;BME280;6600;51.362;6.686;2023-11-21T06:07:11;100917.84;;;9.06;100.00
13068;BME280;6600;51.362;6.686;2023-11-21T06:09:37;100925.22;;;9.04;100.00
13068;BME280;6600;51.362;6.686;2023-11-21T06:12:02;100917.44;;;9.02;100.00
13068;BME280;6600;51.362;6.686;2023-11-21T06:14:29;100918.44;;;9.01;100.00
13068;BME280;6600;51.362;6.686;2023-11-21T06:16:54;100925.63;;;9.01;100.00
13068;BME280;6600;51.362;6.686;2023-11-21T06:19:21;100937.59;;;9.05;100.00
13068;BME280;6600;51.362;6.686;2023-11-21T06:21:46;100930.97;;;9.01;100.00
13068;BME280;6600;51.362;6.686;2023-11-21T06:24:12;100926.84;;;8.92;100.00
13068;BME280;6600;51.362;6.686;2023-11-21T06:26:38;100935.47;;;8.94;100.00
13068;BME280;6600;51.362;6.686;2023-11-21T06:29:03;100937.75;;;8.97;100.00
13068;BME280;6600;51.362;6.686;2023-11-21T06:31:29;100946.56;;;8.91;100.00
13068;BME280;6600;51.362;6.686;2023-11-21T06:33:54;100944.69;;;8.85;100.00
13068;BME280;6600;51.362;6.686;2023-11-21T06:36:20;100950.66;;;8.87;100.00
13068;BME280;6600;51.362;6.686;2023-11-21T06:38:46;100949.22;;;8.84;100.00
13068;BME280;6600;51.362;6.686;2023-11-21T06:41:11;100963.41;;;8.85;100.00
13068;BME280;6600;51.362;6.686;2023-11-21T06:43:39;100958.84;;;8.79;100.00
13068;BME280;6600;51.362;6.686;2023-11-21T06:46:04;100964.81;;;8.81;100.00
13068;BME280;6600;51.362;6.686;2023-11-21T06:48:30;100969.97;;;8.82;100.00
13068;BME280;6600;51.362;6.686;2023-11-21T06:50:55;100983.56;;;8.87;100.00
13068;BME280;6600;51.362;6.686;2023-11-21T06:53:20;100971.00;;;8.81;100.00
13068;BME280;6600;51.362;6.686;2023-11-21T06:55:45;100977.38;;;8.87;100.00
13068;BME280;6600;51.362;6.686;2023-11-21T06:58:11;100983.13;;;8.84;100.00
13068;BME280;6600;51.362;6.686;2023-11-21T07:00:36;100989.31;;;8.91;100.00
13068;BME280;6600;51.362;6.686;2023-11-21T07:03:02;100993.41;;;8.87;100.00
13068;BME280;6600;51.362;6.686;2023-11-21T07:05:27;100998.34;;;8.90;100.00
13068;BME280;6600;51.362;6.686;2023-11-21T07:07:52;101001.28;;;8.95;100.00
13068;BME280;6600;51.362;6.686;2023-11-21T07:10:19;101001.66;;;8.92;100.00
13068;BME280;6600;51.362;6.686;2023-11-21T07:12:44;101001.88;;;8.97;100.00
13068;BME280;6600;51.362;6.686;2023-11-21T07:15:10;101003.78;;;9.03;100.00
13068;BME280;6600;51.362;6.686;2023-11-21T07:17:35;101007.91;;;9.05;100.00
13068;BME280;6600;51.362;6.686;2023-11-21T07:20:02;101011.19;;;9.07;100.00
13068;BME280;6600;51.362;6.686;2023-11-21T07:22:28;101012.03;;;9.08;100.00
13068;BME280;6600;51.362;6.686;2023-11-21T07:24:53;101017.78;;;9.11;100.00
13068;BME280;6600;51.362;6.686;2023-11-21T07:27:19;101011.22;;;9.14;100.00
13068;BME280;6600;51.362;6.686;2023-11-21T07:29:45;101008.78;;;9.19;100.00
13068;BME280;6600;51.362;6.686;2023-11-21T07:32:10;101012.06;;;9.21;100.00
13068;BME280;6600;51.362;6.686;2023-11-21T07:34:36;101017.03;;;9.24;100.00
13068;BME280;6600;51.362;6.686;2023-11-21T07:37:02;101011.31;;;9.27;100.00
13068;BME280;6600;51.362;6.686;2023-11-21T07:39:28;101009.66;;;9.26;100.00
13068;BME280;6600;51.362;6.686;2023-11-21T07:41:53;101016.66;;;9.27;100.00
13068;BME280;6600;51.362;6.686;2023-11-21T07:44:19;101022.00;;;9.27;100.00
13068;BME280;6600;51.362;6.686;2023-11-21T07:46:45;101032.69;;;9.27;100.00
13068;BME280;6600;51.362;6.686;2023-11-21T07:49:11;101043.75;;;9.24;100.00
13068;BME280;6600;51.362;6.686;2023-11-21T07:51:37;101041.31;;;9.29;100.00
13068;BME280;6600;51.362;6.686;2023-11-21T07:54:02;101047.94;;;9.33;100.00
13068;BME280;6600;51.362;6.686;2023-11-21T07:56:28;101052.47;;;9.39;100.00
13068;BME280;6600;51.362;6.686;2023-11-21T07:58:53;101043.84;;;9.37;100.00
13068;BME280;6600;51.362;6.686;2023-11-21T08:01:19;101049.22;;;9.44;100.00
13068;BME280;6600;51.362;6.686;2023-11-21T08:03:44;101054.53;;;9.37;100.00
13068;BME280;6600;51.362;6.686;2023-11-21T08:06:10;101059.88;;;9.37;100.00
13068;BME280;6600;51.362;6.686;2023-11-21T08:08:35;101070.22;;;9.47;100.00
13068;BME280;6600;51.362;6.686;2023-11-21T08:11:00;101087.69;;;9.49;100.00
13068;BME280;6600;51.362;6.686;2023-11-21T08:13:28;101091.16;;;9.37;100.00
13068;BME280;6600;51.362;6.686;2023-11-21T08:15:54;101084.97;;;9.36;100.00
13068;BME280;6600;51.362;6.686;2023-11-21T08:18:19;101091.97;;;9.37;100.00
13068;BME280;6600;51.362;6.686;2023-11-21T08:20:45;101096.94;;;9.40;100.00
13068;BME280;6600;51.362;6.686;2023-11-21T08:23:15;101099.81;;;9.45;100.00
13068;BME280;6600;51.362;6.686;2023-11-21T08:25:44;101104.75;;;9.48;100.00
13068;BME280;6600;51.362;6.686;2023-11-21T08:28:10;101096.97;;;9.53;100.00
13068;BME280;6600;51.362;6.686;2023-11-21T08:30:35;101106.88;;;9.59;100.00
13068;BME280;6600;51.362;6.686;2023-11-21T08:33:01;101109.38;;;9.61;100.00
13068;BME280;6600;51.362;6.686;2023-11-21T08:35:28;101107.31;;;9.63;100.00
13068;BME280;6600;51.362;6.686;2023-11-21T08:37:53;101110.19;;;9.61;100.00
13068;BME280;6600;51.362;6.686;2023-11-21T08:40:20;101112.47;;;9.64;100.00
13068;BME280;6600;51.362;6.686;2023-11-21T08:42:46;101118.88;;;9.70;100.00
13068;BME280;6600;51.362;6.686;2023-11-21T08:45:11;101116.00;;;9.72;100.00
13068;BME280;6600;51.362;6.686;2023-11-21T08:47:39;101122.97;;;9.73;100.00
13068;BME280;6600;51.362;6.686;2023-11-21T08:50:06;101115.59;;;9.75;100.00
13068;BME280;6600;51.362;6.686;2023-11-21T08:52:33;101120.53;;;9.78;100.00
13068;BME280;6600;51.362;6.686;2023-11-21T08:54:58;101130.44;;;9.84;100.00
13068;BME280;6600;51.362;6.686;2023-11-21T08:57:28;101132.09;;;9.85;100.00
13068;BME280;6600;51.362;6.686;2023-11-21T08:59:53;101138.47;;;9.84;100.00
13068;BME280;6600;51.362;6.686;2023-11-21T09:02:25;101145.69;;;9.90;100.00
13068;BME280;6600;51.362;6.686;2023-11-21T09:04:51;101144.69;;;9.91;100.00
13068;BME280;6600;51.362;6.686;2023-11-21T09:07:18;101149.41;;;9.89;100.00
13068;BME280;6600;51.362;6.686;2023-11-21T09:09:46;101154.09;;;9.80;100.00
13068;BME280;6600;51.362;6.686;2023-11-21T09:12:11;101155.53;;;9.83;100.00
13068;BME280;6600;51.362;6.686;2023-11-21T09:14:37;101161.38;;;9.93;100.00
13068;BME280;6600;51.362;6.686;2023-11-21T09:17:03;101171.69;;;9.96;100.00
13068;BME280;6600;51.362;6.686;2023-11-21T09:19:28;101168.19;;;9.95;100.00
13068;BME280;6600;51.362;6.686;2023-11-21T09:21:54;101174.16;;;10.04;100.00
13068;BME280;6600;51.362;6.686;2023-11-21T09:24:19;101172.28;;;9.98;100.00
13068;BME280;6600;51.362;6.686;2023-11-21T09:26:44;101176.84;;;10.04;100.00
13068;BME280;6600;51.362;6.686;2023-11-21T09:29:10;101178.09;;;10.08;100.00
13068;BME280;6600;51.362;6.686;2023-11-21T09:31:36;101183.25;;;10.03;100.00
13068;BME280;6600;51.362;6.686;2023-11-21T09:34:01;101183.44;;;10.08;100.00
13068;BME280;6600;51.362;6.686;2023-11-21T09:36:27;101187.00;;;10.15;100.00
13068;BME280;6600;51.362;6.686;2023-11-21T09:38:55;101187.34;;;9.99;100.00
13068;BME280;6600;51.362;6.686;2023-11-21T09:41:34;101184.88;;;10.04;100.00
13068;BME280;6600;51.362;6.686;2023-11-21T09:44:08;101195.81;;;10.09;100.00
13068;BME280;6600;51.362;6.686;2023-11-21T09:46:37;101200.97;;;10.10;100.00
13068;BME280;6600;51.362;6.686;2023-11-21T09:49:05;101193.97;;;10.09;100.00
13068;BME280;6600;51.362;6.686;2023-11-21T09:51:33;101196.06;;;10.14;100.00
13068;BME280;6600;51.362;6.686;2023-11-21T09:54:03;101196.06;;;10.14;100.00
13068;BME280;6600;51.362;6.686;2023-11-21T09:56:34;101193.94;;;10.03;100.00
13068;BME280;6600;51.362;6.686;2023-11-21T09:59:01;101204.22;;;9.93;100.00
13068;BME280;6600;51.362;6.686;2023-11-21T10:01:32;101205.03;;;10.00;100.00
13068;BME280;6600;51.362;6.686;2023-11-21T10:03:57;101214.94;;;9.99;100.00
13068;BME280;6600;51.362;6.686;2023-11-21T10:06:25;101214.91;;;9.93;100.00
13068;BME280;6600;51.362;6.686;2023-11-21T10:08:53;101213.25;;;9.92;100.00
13068;BME280;6600;51.362;6.686;2023-11-21T10:11:19;101209.72;;;9.85;100.00
13068;BME280;6600;51.362;6.686;2023-11-21T10:13:47;101210.34;;;9.87;100.00
13068;BME280;6600;51.362;6.686;2023-11-21T10:16:19;101203.16;;;9.94;100.00
13068;BME280;6600;51.362;6.686;2023-11-21T10:18:47;101204.81;;;9.95;100.00
13068;BME280;6600;51.362;6.686;2023-11-21T10:21:13;101212.25;;;9.93;100.00
13068;BME280;6600;51.362;6.686;2023-11-21T10:23:39;101216.16;;;10.03;100.00
13068;BME280;6600;51.362;6.686;2023-11-21T10:26:06;101223.84;;;10.13;100.00
13068;BME280;6600;51.362;6.686;2023-11-21T10:28:35;101223.44;;;10.09;100.00
13068;BME280;6600;51.362;6.686;2023-11-21T10:31:06;101226.94;;;10.10;100.00
13068;BME280;6600;51.362;6.686;2023-11-21T10:33:32;101216.00;;;10.05;100.00
13068;BME280;6600;51.362;6.686;2023-11-21T10:35:57;101224.81;;;9.99;100.00
13068;BME280;6600;51.362;6.686;2023-11-21T10:38:23;101216.81;;;10.05;100.00
13068;BME280;6600;51.362;6.686;2023-11-21T10:40:50;101224.88;;;10.12;100.00
13068;BME280;6600;51.362;6.686;2023-11-21T10:43:16;101233.19;;;10.24;100.00
13068;BME280;6600;51.362;6.686;2023-11-21T10:45:42;101230.31;;;10.32;100.00
13068;BME280;6600;51.362;6.686;2023-11-21T10:48:09;101241.06;;;10.38;100.00
13068;BME280;6600;51.362;6.686;2023-11-21T10:50:43;101237.19;;;10.47;100.00
13068;BME280;6600;51.362;6.686;2023-11-21T10:53:09;101234.53;;;10.60;100.00
13068;BME280;6600;51.362;6.686;2023-11-21T10:55:37;101237.41;;;10.65;100.00
13068;BME280;6600;51.362;6.686;2023-11-21T10:58:03;101238.91;;;10.81;100.00
13068;BME280;6600;51.362;6.686;2023-11-21T11:00:31;101232.09;;;10.79;100.00
13068;BME280;6600;51.362;6.686;2023-11-21T11:02:57;101236.00;;;10.83;100.00
13068;BME280;6600;51.362;6.686;2023-11-21T11:05:25;101242.19;;;10.90;100.00
13068;BME280;6600;51.362;6.686;2023-11-21T11:08:04;101239.13;;;10.99;100.00
13068;BME280;6600;51.362;6.686;2023-11-21T11:10:29;101246.97;;;11.01;100.00
13068;BME280;6600;51.362;6.686;2023-11-21T11:12:56;101247.78;;;11.01;100.00
13068;BME280;6600;51.362;6.686;2023-11-21T11:15:23;101245.09;;;11.08;100.00
13068;BME280;6600;51.362;6.686;2023-11-21T11:17:50;101246.97;;;11.01;100.00
13068;BME280;6600;51.362;6.686;2023-11-21T11:20:17;101248.38;;;11.03;100.00
13068;BME280;6600;51.362;6.686;2023-11-21T11:28:14;101260.59;;;11.12;100.00
13068;BME280;6600;51.362;6.686;2023-11-21T11:38:51;101264.28;;;11.05;100.00
13068;BME280;6600;51.362;6.686;2023-11-21T11:41:29;101263.03;;;11.01;100.00
13068;BME280;6600;51.362;6.686;2023-11-21T11:43:57;101264.28;;;10.98;100.00
13068;BME280;6600;51.362;6.686;2023-11-21T11:46:42;101269.22;;;10.95;100.00
13068;BME280;6600;51.362;6.686;2023-11-21T11:49:10;101267.97;;;10.84;100.00
13068;BME280;6600;51.362;6.686;2023-11-21T11:51:36;101262.63;;;10.97;100.00
13068;BME280;6600;51.362;6.686;2023-11-21T11:54:02;101269.00;;;10.90;100.00
13068;BME280;6600;51.362;6.686;2023-11-21T11:56:29;101271.31;;;10.93;100.00
13068;BME280;6600;51.362;6.686;2023-11-21T11:58:58;101275.44;;;11.08;100.00
13068;BME280;6600;51.362;6.686;2023-11-21T12:01:26;101284.91;;;11.24;100.00
13068;BME280;6600;51.362;6.686;2023-11-21T12:07:00;101275.84;;;11.38;100.00
13068;BME280;6600;51.362;6.686;2023-11-21T12:09:28;101284.31;;;11.35;100.00
13068;BME280;6600;51.362;6.686;2023-11-21T12:11:55;101279.56;;;11.24;100.00
13068;BME280;6600;51.362;6.686;2023-11-21T12:14:22;101275.84;;;11.25;100.00
13068;BME280;6600;51.362;6.686;2023-11-21T12:16:48;101278.34;;;11.20;100.00
13068;BME280;6600;51.362;6.686;2023-11-21T12:19:14;101275.44;;;11.28;100.00
13068;BME280;6600;51.362;6.686;2023-11-21T12:21:40;101280.38;;;11.31;100.00
13068;BME280;6600;51.362;6.686;2023-11-21T12:24:13;101276.69;;;11.39;100.00
13068;BME280;6600;51.362;6.686;2023-11-21T12:26:42;101280.38;;;11.31;100.00
13068;BME280;6600;51.362;6.686;2023-11-21T12:29:08;101283.28;;;11.36;100.00
13068;BME280;6600;51.362;6.686;2023-11-21T12:31:34;101292.34;;;11.35;100.00
13068;BME280;6600;51.362;6.686;2023-11-21T12:34:02;101289.06;;;11.20;100.00
13068;BME280;6600;51.362;6.686;2023-11-21T12:36:29;101287.41;;;11.19;100.00
13068;BME280;6600;51.362;6.686;2023-11-21T12:38:55;101300.59;;;11.21;100.00
13068;BME280;6600;51.362;6.686;2023-11-21T12:41:20;101290.50;;;11.23;100.00
13068;BME280;6600;51.362;6.686;2023-11-21T12:43:47;101297.72;;;11.35;100.00
13068;BME280;6600;51.362;6.686;2023-11-21T12:46:13;101299.78;;;11.46;100.00
13068;BME280;6600;51.362;6.686;2023-11-21T12:48:41;101298.56;;;11.42;100.00
13068;BME280;6600;51.362;6.686;2023-11-21T12:51:11;101308.03;;;11.25;100.00
13068;BME280;6600;51.362;6.686;2023-11-21T12:53:38;101306.78;;;11.14;100.00
13068;BME280;6600;51.362;6.686;2023-11-21T12:56:22;101314.66;;;11.16;100.00
13068;BME280;6600;51.362;6.686;2023-11-21T12:58:50;101324.13;;;11.25;100.00
13068;BME280;6600;51.362;6.686;2023-11-21T13:01:16;101328.25;;;11.08;100.00
13068;BME280;6600;51.362;6.686;2023-11-21T13:03:47;101325.78;;;11.13;100.00
13068;BME280;6600;51.362;6.686;2023-11-21T13:06:17;101326.00;;;11.18;100.00
13068;BME280;6600;51.362;6.686;2023-11-21T13:08:44;101328.66;;;11.18;100.00
13068;BME280;6600;51.362;6.686;2023-11-21T13:11:10;101341.84;;;11.00;100.00
13068;BME280;6600;51.362;6.686;2023-11-21T13:13:36;101338.72;;;10.96;100.00